Aeroporto :
LOGIN :

Iscrizione | Disclaimer

   EN    FR    IT 

 










Sommario :    VFR   VFR Marginale   IFR   IFR Intensivo   IFR Molto Intensivo
Visibilità : 
Base nubi : 
>= 8 km
>= 3000ft
5 / 8 km
1000 / 3000 ft
1500m / 5 km
500 / 1000 ft
800 / 1500m
200 / 500 ft
< 800m
< 200 ft
Simboli :   Temporali  Nebbia  Neve Forte  Precipitazioni Forti  Vento > 20 kt
SIGMETs :   Varie  Temporali  Ghiacco  Turbolenza  Onda orograficha  Ceneri Vulcaniche






- Altitudine del aeroporto : 65 ft


EEEI - Ämari Air Base

METARs OBSOLETI :
  • 210550Z 16013KT 9999 -RA FEW011 BKN014 OVC021 02/01 Q1003 R24/190095 NOSIG
  • 210450Z 17013G23KT 130V200 9999 -RA BKN018 OVC023 03/M00 Q1004 R24/190095 NOSIG

TAF TAF EEEI
Valido dal 21 a 06 ore il 22 a 06 ore UTC


210530Z 2106/2206 17016G26KT 9999 BKN015
TEMPO 2106/2115 3000 RASN BKN005
TEMPO 2107/2113 18020G30KT
BECMG 2115/2117 20013KT SCT012 BKN025
TEMPO 2203/2206 22018G28KT BKN008



MetMap, La meteo Aeronautica in un colpo d'occhio ! - Copyright ORBIFLY Dicembre 2007 - Disclaimer

ORBIFLY MET'MAP TEAM :

Programmazione e sviluppo : Alexandra Zaïnal
Concezione : Baudouin d'Aumeries
Aiuto per la programmazione : Marc-Olivier Méhu
Supporto tecnico e logistico : Manuel Goepfert
Aiuto per la traduzione : Arnaldo La Scala

Contatto : metmap@orbifly.com




FONTI E CREDITI :

   NOAA